createdAt,value
2022-12-01T00:02:56.328Z,13.40
2022-12-01T00:07:57.538Z,11.10
2022-12-01T00:12:57.599Z,10.10
2022-12-01T00:17:56.721Z,13.00
2022-12-01T00:22:55.298Z,12.00
2022-12-01T00:27:55.138Z,11.60
2022-12-01T00:32:53.571Z,11.20
2022-12-01T00:37:52.473Z,9.80
2022-12-01T00:42:51.816Z,10.00
2022-12-01T00:47:50.985Z,11.20
2022-12-01T00:52:49.856Z,11.70
2022-12-01T00:57:49.513Z,9.00
2022-12-01T01:02:48.910Z,12.10
2022-12-01T01:07:47.790Z,11.20
2022-12-01T01:12:46.729Z,11.70
2022-12-01T01:17:45.998Z,10.30
2022-12-01T01:22:44.834Z,9.80
2022-12-01T01:27:44.107Z,13.30
2022-12-01T01:32:43.205Z,11.00
2022-12-01T01:37:42.667Z,13.00
2022-12-01T01:42:41.661Z,12.10
2022-12-01T01:47:43.119Z,11.50
2022-12-01T01:52:47.504Z,13.70
2022-12-01T01:57:47.587Z,12.80
2022-12-01T02:02:49.760Z,11.90
2022-12-01T02:07:50.164Z,11.20
2022-12-01T02:13:07.309Z,9.30
2022-12-01T02:18:25.052Z,9.80
2022-12-01T02:23:56.547Z,15.80
2022-12-01T02:29:24.177Z,10.00
2022-12-01T02:34:35.991Z,12.80
2022-12-01T02:39:43.636Z,13.00
2022-12-01T02:44:47.122Z,15.00
2022-12-01T02:49:51.210Z,15.40
2022-12-01T02:54:52.103Z,13.40
2022-12-01T02:59:56.423Z,14.10
2022-12-01T03:05:12.276Z,12.00
2022-12-01T03:10:24.265Z,11.50
2022-12-01T03:15:37.510Z,14.20
2022-12-01T03:20:44.064Z,12.90
2022-12-01T03:25:49.869Z,15.20
2022-12-01T03:30:53.852Z,12.90
2022-12-01T03:36:01.281Z,14.20
2022-12-01T03:41:07.053Z,14.60
2022-12-01T03:46:15.554Z,11.10
2022-12-01T03:51:23.168Z,16.70
2022-12-01T03:56:28.682Z,14.20
2022-12-01T04:01:32.927Z,12.10
2022-12-01T04:06:31.498Z,16.50
2022-12-01T04:11:48.120Z,15.30
2022-12-01T04:16:47.139Z,16.00
2022-12-01T04:21:46.537Z,14.90
2022-12-01T04:26:46.276Z,13.70
2022-12-01T04:31:45.783Z,12.80
2022-12-01T04:36:44.479Z,14.50
2022-12-01T04:41:43.732Z,13.00
2022-12-01T04:46:42.448Z,14.80
2022-12-01T04:51:41.452Z,13.50
2022-12-01T04:56:40.547Z,13.70
2022-12-01T05:01:40.080Z,11.20
2022-12-01T05:06:38.770Z,12.50
2022-12-01T05:11:38.523Z,12.60
2022-12-01T05:16:37.878Z,12.50
2022-12-01T05:21:37.500Z,12.60
2022-12-01T05:26:36.615Z,14.10
2022-12-01T05:31:36.222Z,12.70
2022-12-01T05:36:36.660Z,12.20
2022-12-01T05:41:36.085Z,11.80
2022-12-01T05:46:34.572Z,12.80
2022-12-01T05:51:33.538Z,12.30
2022-12-01T05:56:32.817Z,12.20
2022-12-01T06:01:31.564Z,12.90
2022-12-01T06:06:30.544Z,12.30
2022-12-01T06:11:32.372Z,10.80
2022-12-01T06:16:31.938Z,11.80
2022-12-01T06:21:30.427Z,12.70
2022-12-01T06:26:29.549Z,13.60
2022-12-01T06:31:28.577Z,12.90
2022-12-01T06:36:27.395Z,14.90
2022-12-01T06:41:26.436Z,12.30
2022-12-01T06:46:26.177Z,12.60
2022-12-01T06:51:25.945Z,12.40
2022-12-01T06:56:26.104Z,15.50
2022-12-01T07:01:26.308Z,15.80
2022-12-01T07:06:24.772Z,18.80
2022-12-01T07:11:24.231Z,15.00
2022-12-01T07:16:23.613Z,15.80
2022-12-01T07:21:22.705Z,14.80
2022-12-01T07:26:23.147Z,19.20
2022-12-01T07:31:23.631Z,17.50
2022-12-01T07:36:22.991Z,18.10
2022-12-01T07:41:22.984Z,16.00
2022-12-01T07:46:26.402Z,20.20
2022-12-01T07:51:26.779Z,16.60
2022-12-01T07:56:26.632Z,19.40
2022-12-01T08:01:27.815Z,14.90
2022-12-01T08:06:28.588Z,16.20
2022-12-01T08:11:30.819Z,16.70
2022-12-01T08:16:30.975Z,15.80
2022-12-01T08:21:30.222Z,14.70
2022-12-01T08:26:30.334Z,15.70
2022-12-01T08:31:35.978Z,15.50
2022-12-01T08:36:35.071Z,15.20
2022-12-01T08:41:34.265Z,19.40
2022-12-01T08:46:37.416Z,18.90
2022-12-01T08:51:37.242Z,21.10
2022-12-01T08:56:40.433Z,23.60
2022-12-01T09:01:52.308Z,20.40
2022-12-01T09:06:54.124Z,18.70
2022-12-01T09:11:53.405Z,15.80
2022-12-01T09:16:53.788Z,20.00
2022-12-01T09:21:53.943Z,18.30
2022-12-01T09:26:55.936Z,21.40
2022-12-01T09:31:58.316Z,18.70
2022-12-01T09:37:00.257Z,16.30
2022-12-01T09:42:09.092Z,18.20
2022-12-01T09:47:19.292Z,20.10
2022-12-01T09:52:22.827Z,18.10
2022-12-01T09:57:37.608Z,17.90
2022-12-01T10:02:42.351Z,17.10
2022-12-01T10:07:49.361Z,19.90
2022-12-01T10:12:49.963Z,18.10
2022-12-01T10:18:03.172Z,20.20
2022-12-01T10:23:33.588Z,20.80
2022-12-01T10:29:02.787Z,19.30
2022-12-01T10:34:09.095Z,15.60
2022-12-01T10:39:15.997Z,18.10
2022-12-01T10:44:15.824Z,19.10
2022-12-01T10:49:18.202Z,16.80
2022-12-01T10:54:17.430Z,17.50
2022-12-01T10:59:36.009Z,18.00
2022-12-01T11:04:45.681Z,17.40
2022-12-01T11:09:47.235Z,18.40
2022-12-01T11:14:51.967Z,20.90
2022-12-01T11:19:51.668Z,21.50
2022-12-01T11:25:04.414Z,19.10
2022-12-01T11:30:21.784Z,21.90
2022-12-01T11:35:25.751Z,23.50
2022-12-01T11:40:31.413Z,21.00
2022-12-01T11:45:37.314Z,19.10
2022-12-01T11:50:40.228Z,22.20
2022-12-01T11:55:38.970Z,23.90
2022-12-01T12:00:49.281Z,24.40
2022-12-01T12:11:45.746Z,23.60
2022-12-01T12:17:10.774Z,19.30
2022-12-01T12:22:27.506Z,24.20
2022-12-01T12:27:40.734Z,30.70
2022-12-01T12:33:25.055Z,25.10
2022-12-01T12:38:51.789Z,29.40
2022-12-01T12:44:04.854Z,22.40
2022-12-01T12:49:26.751Z,19.10
2022-12-01T12:54:33.884Z,24.00
2022-12-01T12:59:38.785Z,21.70
2022-12-01T13:04:46.950Z,21.80
2022-12-01T13:09:52.509Z,17.30
2022-12-01T13:15:01.282Z,15.60
2022-12-01T13:20:00.611Z,17.10
2022-12-01T13:24:59.947Z,16.00
2022-12-01T13:30:01.264Z,13.60
2022-12-01T13:35:01.856Z,11.30
2022-12-01T13:40:21.227Z,10.80
2022-12-01T13:45:24.207Z,16.10
2022-12-01T13:56:41.237Z,12.70
2022-12-01T14:02:07.744Z,12.00
2022-12-01T14:07:40.666Z,15.80
2022-12-01T14:12:42.436Z,15.40
2022-12-01T14:17:44.074Z,12.90
2022-12-01T14:22:50.757Z,14.70
2022-12-01T14:27:52.558Z,14.20
2022-12-01T14:32:51.766Z,14.20
2022-12-01T14:37:53.995Z,15.90
2022-12-01T14:43:16.578Z,18.70
2022-12-01T14:48:25.557Z,15.80
2022-12-01T14:53:46.059Z,15.80
2022-12-01T14:58:57.940Z,12.90
2022-12-01T15:04:04.092Z,16.00
2022-12-01T15:09:34.103Z,14.90
2022-12-01T15:14:48.795Z,16.00
2022-12-01T15:19:48.074Z,17.60
2022-12-01T15:24:48.813Z,17.10
2022-12-01T15:29:49.698Z,16.50
2022-12-01T15:34:53.458Z,14.50
2022-12-01T15:40:43.014Z,16.10
2022-12-01T15:45:25.465Z,14.40
2022-12-01T15:50:42.934Z,16.60
2022-12-01T15:55:46.963Z,15.70
2022-12-01T16:01:00.684Z,15.40
2022-12-01T16:06:00.269Z,19.00
2022-12-01T16:11:21.908Z,16.90
2022-12-01T16:16:43.327Z,18.00
2022-12-01T16:21:51.131Z,16.40
2022-12-01T16:26:55.868Z,20.00
2022-12-01T16:32:19.278Z,17.50
2022-12-01T16:37:19.397Z,25.40
2022-12-01T16:42:22.101Z,28.60
2022-12-01T16:47:25.298Z,25.00
2022-12-01T16:57:43.613Z,21.40
2022-12-01T17:02:44.215Z,22.40
2022-12-01T17:07:43.467Z,25.10
2022-12-01T17:12:42.700Z,20.60
2022-12-01T17:17:43.158Z,23.50
2022-12-01T17:22:42.101Z,19.30
2022-12-01T17:27:43.740Z,24.70
2022-12-01T17:32:42.499Z,19.80
2022-12-01T17:37:41.624Z,17.90
2022-12-01T17:42:45.484Z,21.00
2022-12-01T17:47:48.223Z,23.10
2022-12-01T17:52:47.847Z,22.30
2022-12-01T17:57:47.207Z,20.20
2022-12-01T18:02:47.871Z,25.00
2022-12-01T18:07:46.504Z,20.70
2022-12-01T18:12:45.336Z,16.80
2022-12-01T18:17:45.071Z,24.60
2022-12-01T18:22:43.759Z,19.40
2022-12-01T18:27:43.174Z,20.70
2022-12-01T18:32:42.006Z,22.10
2022-12-01T18:37:41.771Z,24.20
2022-12-01T18:42:43.920Z,25.20
2022-12-01T18:47:42.937Z,21.40
2022-12-01T18:52:42.590Z,25.40
2022-12-01T18:57:41.952Z,23.90
2022-12-01T19:02:41.529Z,24.30
2022-12-01T19:07:41.094Z,23.40
2022-12-01T19:12:41.244Z,25.60
2022-12-01T19:17:44.788Z,24.70
2022-12-01T19:22:44.406Z,24.70
2022-12-01T19:27:44.746Z,30.50
2022-12-01T19:32:46.937Z,22.10
2022-12-01T19:37:47.315Z,26.20
2022-12-01T19:42:47.630Z,27.50
2022-12-01T19:47:47.684Z,23.80
2022-12-01T19:52:47.247Z,32.90
2022-12-01T19:57:46.133Z,28.30
2022-12-01T20:02:45.464Z,29.90
2022-12-01T20:07:44.937Z,27.20
2022-12-01T20:12:44.438Z,28.10
2022-12-01T20:17:44.375Z,29.10
2022-12-01T20:22:43.360Z,23.70
2022-12-01T20:27:42.727Z,18.90
2022-12-01T20:32:42.027Z,24.50
2022-12-01T20:37:44.535Z,22.50
2022-12-01T20:42:44.126Z,22.70
2022-12-01T20:47:43.689Z,24.90
2022-12-01T20:52:42.802Z,29.00
2022-12-01T20:57:42.587Z,23.40
2022-12-01T21:02:43.716Z,25.60
2022-12-01T21:07:42.991Z,20.70
2022-12-01T21:13:02.210Z,21.80
2022-12-01T21:18:05.682Z,19.90
2022-12-01T21:23:12.595Z,24.90
2022-12-01T21:28:22.667Z,18.90
2022-12-01T21:33:34.890Z,23.50
2022-12-01T21:38:36.013Z,21.20
2022-12-01T21:43:38.568Z,26.70
2022-12-01T21:48:43.857Z,22.30
2022-12-01T21:53:43.908Z,16.30
2022-12-01T21:58:42.923Z,19.30
2022-12-01T22:03:47.585Z,21.40
2022-12-01T22:08:52.534Z,26.30
2022-12-01T22:14:00.333Z,23.10
2022-12-01T22:19:02.076Z,21.60
2022-12-01T22:24:21.001Z,23.50
2022-12-01T22:29:31.947Z,21.40
2022-12-01T22:34:31.603Z,20.80
2022-12-01T22:39:34.872Z,24.40
2022-12-01T22:44:34.736Z,21.60
2022-12-01T22:49:35.521Z,17.90
2022-12-01T22:54:50.402Z,22.30
2022-12-01T22:59:50.599Z,20.10
2022-12-01T23:04:53.537Z,13.60
2022-12-01T23:09:52.854Z,16.40
2022-12-01T23:14:55.546Z,19.20
2022-12-01T23:20:03.633Z,17.00
2022-12-01T23:25:03.559Z,19.80
2022-12-01T23:30:02.842Z,18.10
2022-12-01T23:35:03.879Z,20.70
2022-12-01T23:40:03.992Z,22.70
2022-12-01T23:45:03.486Z,28.70
2022-12-01T23:50:07.914Z,20.70
2022-12-01T23:55:22.986Z,18.20
